Time;durP1;ratioP1;P1;durP2;ratioP2;P2;SDS_P1;SDS_P2;PMS_P1;PMS_P2;Temp;Humidity;BMP_temperature;BMP_pressure;BME280_temperature;BME280_humidity;BME280_pressure;Samples;Min_cycle;Max_cycle;Signal;HPM_P1;HPM_P2
2023/07/25 00:00:57;;;;;;;7.63;2.70;;;;;;;;;;5040456;28;20053;-61
2023/07/25 00:03:24;;;;;;;5.18;2.15;;;;;;;;;;5042966;28;20136;-62
2023/07/25 00:05:50;;;;;;;5.15;2.17;;;;;;;;;;5042652;28;20059;-61
2023/07/25 00:08:17;;;;;;;4.00;2.47;;;;;;;;;;5041846;28;20065;-64
2023/07/25 00:10:43;;;;;;;11.27;2.72;;;;;;;;;;5042069;28;20054;-64
2023/07/25 00:13:09;;;;;;;8.43;2.42;;;;;;;;;;5041559;28;20144;-61
2023/07/25 00:15:36;;;;;;;5.90;2.30;;;;;;;;;;5041275;28;20046;-63
2023/07/25 00:18:04;;;;;;;5.55;1.98;;;;;;;;;;5042468;28;20103;-60
2023/07/25 00:20:30;;;;;;;7.63;2.67;;;;;;;;;;5043076;28;20057;-59
2023/07/25 00:22:57;;;;;;;9.85;2.72;;;;;;;;;;5040179;28;20057;-64
2023/07/25 00:25:24;;;;;;;6.80;2.72;;;;;;;;;;5042988;28;20057;-62
2023/07/25 00:27:50;;;;;;;10.65;2.78;;;;;;;;;;5041518;28;20057;-63
2023/07/25 00:30:16;;;;;;;6.30;3.17;;;;;;;;;;5041080;28;20054;-64
2023/07/25 00:32:43;;;;;;;6.15;2.65;;;;;;;;;;5042743;28;20203;-64
2023/07/25 00:35:09;;;;;;;5.63;2.40;;;;;;;;;;5042321;28;20085;-59
2023/07/25 00:37:36;;;;;;;5.32;2.95;;;;;;;;;;5042297;28;20080;-60
2023/07/25 00:40:03;;;;;;;11.50;3.35;;;;;;;;;;5039575;28;20053;-56
2023/07/25 00:42:29;;;;;;;4.93;2.75;;;;;;;;;;5041985;28;20486;-63
2023/07/25 00:44:56;;;;;;;5.35;2.85;;;;;;;;;;5042880;28;20085;-63
2023/07/25 00:47:22;;;;;;;8.55;3.30;;;;;;;;;;5042218;28;20478;-63
2023/07/25 00:49:49;;;;;;;7.22;3.10;;;;;;;;;;5042505;28;20057;-63
2023/07/25 00:52:16;;;;;;;6.50;2.92;;;;;;;;;;5040370;28;20570;-62
2023/07/25 00:54:49;;;;;;;5.55;2.80;;;;;;;;;;5040516;28;20426;-63
2023/07/25 00:57:16;;;;;;;8.00;2.97;;;;;;;;;;5042361;28;20566;-63
2023/07/25 00:59:43;;;;;;;6.40;3.15;;;;;;;;;;5041794;28;20508;-63
2023/07/25 01:02:11;;;;;;;9.88;2.90;;;;;;;;;;5040911;28;20566;-59
2023/07/25 01:04:38;;;;;;;9.40;2.75;;;;;;;;;;5040972;28;20111;-62
2023/07/25 01:07:05;;;;;;;6.57;2.70;;;;;;;;;;5033489;28;20523;-59
2023/07/25 01:09:36;;;;;;;11.07;2.53;;;;;;;;;;5041852;28;20049;-63
2023/07/25 01:12:04;;;;;;;3.88;2.78;;;;;;;;;;5041717;28;20531;-60
2023/07/25 01:14:31;;;;;;;5.75;2.85;;;;;;;;;;5028359;28;20061;-63
2023/07/25 01:17:07;;;;;;;7.20;3.08;;;;;;;;;;5023344;28;20053;-59
2023/07/25 01:19:34;;;;;;;6.40;2.97;;;;;;;;;;5023194;28;20136;-62
2023/07/25 01:22:01;;;;;;;8.98;3.60;;;;;;;;;;5030346;28;20061;-64
2023/07/25 01:24:27;;;;;;;8.77;3.42;;;;;;;;;;5041777;28;20539;-64
2023/07/25 01:26:55;;;;;;;5.47;2.95;;;;;;;;;;5039629;28;20065;-63
2023/07/25 01:29:21;;;;;;;5.40;2.97;;;;;;;;;;5041322;28;20065;-64
2023/07/25 01:31:48;;;;;;;7.90;2.92;;;;;;;;;;5040898;28;20507;-61
2023/07/25 01:34:14;;;;;;;4.22;2.85;;;;;;;;;;5039676;28;20140;-58
2023/07/25 01:36:41;;;;;;;5.10;2.60;;;;;;;;;;5039507;28;20060;-58
2023/07/25 01:39:07;;;;;;;4.47;3.70;;;;;;;;;;5041468;28;20140;-64
2023/07/25 01:41:33;;;;;;;5.85;2.80;;;;;;;;;;5040189;28;20045;-62
2023/07/25 01:44:00;;;;;;;8.02;3.47;;;;;;;;;;5040497;28;20077;-59
2023/07/25 01:46:26;;;;;;;10.07;3.30;;;;;;;;;;5040520;28;20437;-63
2023/07/25 01:48:53;;;;;;;10.13;3.90;;;;;;;;;;5041283;28;20095;-62
2023/07/25 01:51:19;;;;;;;8.55;3.20;;;;;;;;;;5041334;28;20085;-61
2023/07/25 01:53:45;;;;;;;7.88;3.25;;;;;;;;;;5039998;28;20132;-63
2023/07/25 01:56:12;;;;;;;4.32;2.97;;;;;;;;;;5038794;28;20146;-63
2023/07/25 01:58:38;;;;;;;10.43;2.95;;;;;;;;;;5040818;28;20058;-61
2023/07/25 02:01:05;;;;;;;4.32;2.83;;;;;;;;;;5040250;28;20450;-63
2023/07/25 02:03:31;;;;;;;9.02;3.53;;;;;;;;;;5041800;28;20064;-57
2023/07/25 02:05:58;;;;;;;6.63;2.65;;;;;;;;;;5039425;28;20508;-60
2023/07/25 02:08:25;;;;;;;6.55;3.30;;;;;;;;;;5040729;28;20053;-59
2023/07/25 02:10:51;;;;;;;6.63;3.00;;;;;;;;;;5039121;28;20422;-62
2023/07/25 02:13:17;;;;;;;6.28;3.05;;;;;;;;;;5037828;28;20065;-60
2023/07/25 02:15:44;;;;;;;9.40;3.58;;;;;;;;;;5029349;28;20184;-59
2023/07/25 02:18:10;;;;;;;6.88;3.20;;;;;;;;;;5039000;28;20053;-60
2023/07/25 02:20:37;;;;;;;5.13;3.30;;;;;;;;;;5041565;28;20050;-61
2023/07/25 02:23:03;;;;;;;6.00;3.45;;;;;;;;;;5032351;28;20065;-55
2023/07/25 02:25:29;;;;;;;5.72;3.35;;;;;;;;;;5041298;28;20555;-63
2023/07/25 02:27:56;;;;;;;6.75;3.70;;;;;;;;;;5041016;28;20054;-60
2023/07/25 02:30:22;;;;;;;6.22;3.30;;;;;;;;;;5027655;28;20062;-62
2023/07/25 02:32:49;;;;;;;4.20;3.03;;;;;;;;;;5036046;28;20481;-65
2023/07/25 02:35:15;;;;;;;5.30;3.00;;;;;;;;;;5039362;28;20057;-59
2023/07/25 02:37:41;;;;;;;7.32;3.05;;;;;;;;;;5042688;28;20060;-60
2023/07/25 02:40:08;;;;;;;5.53;3.50;;;;;;;;;;5044004;28;20615;-63
2023/07/25 02:42:35;;;;;;;6.32;3.20;;;;;;;;;;5044295;28;20137;-64
2023/07/25 02:45:02;;;;;;;10.45;3.58;;;;;;;;;;5044359;28;20061;-64
2023/07/25 02:47:28;;;;;;;7.90;3.38;;;;;;;;;;5043944;28;20058;-61
2023/07/25 02:49:55;;;;;;;7.85;3.25;;;;;;;;;;5043338;28;20053;-63
2023/07/25 02:52:21;;;;;;;5.90;3.47;;;;;;;;;;5042871;28;20239;-64
2023/07/25 02:54:47;;;;;;;8.13;3.33;;;;;;;;;;5042466;28;20053;-61
2023/07/25 02:57:14;;;;;;;8.82;3.53;;;;;;;;;;5044391;28;20061;-64
2023/07/25 02:59:40;;;;;;;12.57;3.65;;;;;;;;;;5043897;28;20669;-64
2023/07/25 03:02:07;;;;;;;6.60;3.10;;;;;;;;;;5028761;28;20141;-62
2023/07/25 03:04:33;;;;;;;6.13;3.33;;;;;;;;;;5040554;28;20140;-60
2023/07/25 03:06:59;;;;;;;6.68;2.97;;;;;;;;;;5043886;28;20045;-64
2023/07/25 03:09:26;;;;;;;6.90;2.90;;;;;;;;;;5045312;28;20049;-64
2023/07/25 03:11:52;;;;;;;7.25;3.38;;;;;;;;;;5046331;28;20060;-63
2023/07/25 03:14:19;;;;;;;7.82;3.22;;;;;;;;;;5044548;28;20077;-63
2023/07/25 03:16:45;;;;;;;5.70;3.10;;;;;;;;;;5044377;28;20137;-61
2023/07/25 03:19:12;;;;;;;6.03;3.00;;;;;;;;;;5039662;28;20085;-62
2023/07/25 03:21:38;;;;;;;3.75;3.00;;;;;;;;;;5076173;28;20064;-63
2023/07/25 03:24:05;;;;;;;7.97;3.35;;;;;;;;;;5044380;28;20065;-62
2023/07/25 03:26:31;;;;;;;8.27;2.92;;;;;;;;;;5044433;28;20049;-61
2023/07/25 03:28:58;;;;;;;7.03;2.78;;;;;;;;;;5044485;28;20622;-60
2023/07/25 03:31:25;;;;;;;5.93;2.67;;;;;;;;;;5043154;28;20053;-60
2023/07/25 03:33:52;;;;;;;5.63;2.85;;;;;;;;;;5043691;28;20104;-65
2023/07/25 03:36:18;;;;;;;13.68;3.45;;;;;;;;;;5038965;28;20053;-64
2023/07/25 03:38:44;;;;;;;5.65;3.42;;;;;;;;;;5043061;28;20127;-62
2023/07/25 03:41:11;;;;;;;7.60;3.42;;;;;;;;;;5043555;28;20063;-64
2023/07/25 03:43:37;;;;;;;5.65;3.38;;;;;;;;;;5044116;28;20508;-63
2023/07/25 03:46:04;;;;;;;6.72;2.58;;;;;;;;;;5042399;28;20049;-63
2023/07/25 03:48:31;;;;;;;5.47;3.03;;;;;;;;;;5043430;28;20598;-64
2023/07/25 03:50:58;;;;;;;3.72;2.58;;;;;;;;;;5043870;28;20053;-59
2023/07/25 03:53:24;;;;;;;10.10;3.05;;;;;;;;;;5029264;28;20492;-62
2023/07/25 03:55:51;;;;;;;6.07;2.72;;;;;;;;;;5041666;28;20057;-62
2023/07/25 03:58:17;;;;;;;8.23;2.55;;;;;;;;;;5042212;28;20066;-62
2023/07/25 04:00:44;;;;;;;7.25;2.70;;;;;;;;;;5042249;28;20496;-59
2023/07/25 04:03:10;;;;;;;6.32;2.63;;;;;;;;;;5041141;28;20150;-61
2023/07/25 04:05:41;;;;;;;7.90;2.53;;;;;;;;;;5040944;28;20054;-64
2023/07/25 04:08:07;;;;;;;7.35;2.72;;;;;;;;;;5042232;28;20524;-63
2023/07/25 04:10:34;;;;;;;5.88;2.50;;;;;;;;;;5042740;28;20172;-63
2023/07/25 04:13:00;;;;;;;6.93;2.60;;;;;;;;;;5040856;28;20057;-63
2023/07/25 04:15:27;;;;;;;4.55;2.30;;;;;;;;;;5042518;28;20500;-63
2023/07/25 04:17:53;;;;;;;4.70;2.67;;;;;;;;;;5042977;28;20057;-61
2023/07/25 04:20:19;;;;;;;7.72;3.00;;;;;;;;;;5042197;28;20056;-61
2023/07/25 04:22:46;;;;;;;5.13;3.35;;;;;;;;;;5042345;28;20064;-64
2023/07/25 04:25:12;;;;;;;4.32;2.67;;;;;;;;;;5041838;28;20057;-64
2023/07/25 04:27:39;;;;;;;4.47;2.78;;;;;;;;;;5043182;28;20057;-64
2023/07/25 04:30:05;;;;;;;6.80;2.67;;;;;;;;;;5042585;28;20142;-63
2023/07/25 04:32:32;;;;;;;4.93;2.22;;;;;;;;;;5042363;28;20053;-60
2023/07/25 04:34:58;;;;;;;6.25;2.60;;;;;;;;;;5042065;28;20144;-60
2023/07/25 04:37:25;;;;;;;13.15;3.20;;;;;;;;;;5040576;28;20147;-62
2023/07/25 04:39:51;;;;;;;4.97;2.65;;;;;;;;;;5041372;28;20058;-63
2023/07/25 04:42:17;;;;;;;8.40;2.60;;;;;;;;;;5041532;28;20057;-63
2023/07/25 04:44:44;;;;;;;3.60;2.42;;;;;;;;;;5041356;28;20088;-62
2023/07/25 04:47:11;;;;;;;5.63;2.33;;;;;;;;;;5041076;28;20053;-63
2023/07/25 04:49:37;;;;;;;6.75;2.85;;;;;;;;;;5042559;28;20080;-62
2023/07/25 04:52:04;;;;;;;9.73;2.75;;;;;;;;;;5039566;28;20164;-59
2023/07/25 04:54:30;;;;;;;4.25;2.13;;;;;;;;;;5039516;28;20054;-59
2023/07/25 04:56:56;;;;;;;5.22;2.53;;;;;;;;;;5039733;28;20088;-60
2023/07/25 04:59:23;;;;;;;5.50;2.30;;;;;;;;;;5041477;28;20050;-61
2023/07/25 05:01:49;;;;;;;4.43;2.80;;;;;;;;;;5027102;28;20112;-60
2023/07/25 05:04:16;;;;;;;8.60;2.60;;;;;;;;;;5046003;28;20108;-62
2023/07/25 05:06:42;;;;;;;4.97;2.40;;;;;;;;;;5037303;28;20424;-64
2023/07/25 05:09:09;;;;;;;5.03;2.47;;;;;;;;;;5038887;28;20053;-62
2023/07/25 05:11:35;;;;;;;5.18;2.22;;;;;;;;;;5027338;28;20046;-62
2023/07/25 05:14:02;;;;;;;5.95;3.00;;;;;;;;;;5032584;28;20053;-63
2023/07/25 05:16:28;;;;;;;8.13;3.10;;;;;;;;;;5041229;28;20566;-63
2023/07/25 05:18:54;;;;;;;3.80;2.42;;;;;;;;;;5033000;28;20057;-63
2023/07/25 05:21:21;;;;;;;4.85;2.90;;;;;;;;;;5042288;28;20061;-64
2023/07/25 05:23:47;;;;;;;13.45;3.28;;;;;;;;;;5041989;28;20983;-61
2023/07/25 05:26:14;;;;;;;5.30;2.80;;;;;;;;;;5027112;28;20151;-60
2023/07/25 05:28:41;;;;;;;8.18;2.40;;;;;;;;;;5037462;28;20057;-61
2023/07/25 05:31:07;;;;;;;6.75;2.63;;;;;;;;;;5041633;28;20057;-60
2023/07/25 05:33:33;;;;;;;5.43;2.20;;;;;;;;;;5040314;28;20488;-60
2023/07/25 05:36:03;;;;;;;11.95;2.72;;;;;;;;;;5040823;28;20433;-62
2023/07/25 05:38:29;;;;;;;2.65;2.15;;;;;;;;;;5041943;28;20556;-61
2023/07/25 05:40:56;;;;;;;6.55;2.35;;;;;;;;;;5036324;28;20056;-57
2023/07/25 05:43:22;;;;;;;4.50;2.47;;;;;;;;;;5033470;28;20052;-63
2023/07/25 05:45:49;;;;;;;12.20;2.60;;;;;;;;;;5026840;28;20205;-62
2023/07/25 05:48:15;;;;;;;7.28;2.20;;;;;;;;;;5038319;28;20447;-62
2023/07/25 05:50:41;;;;;;;6.03;2.78;;;;;;;;;;5038657;28;20053;-61
2023/07/25 05:53:08;;;;;;;4.13;2.20;;;;;;;;;;5025744;28;20054;-62
2023/07/25 05:55:34;;;;;;;3.40;2.13;;;;;;;;;;5040647;28;20103;-62
2023/07/25 05:58:01;;;;;;;3.28;1.95;;;;;;;;;;5044386;28;20132;-62
2023/07/25 06:00:27;;;;;;;5.45;2.03;;;;;;;;;;5040372;28;20574;-61
2023/07/25 06:02:53;;;;;;;4.70;2.30;;;;;;;;;;5039467;28;20061;-62
2023/07/25 06:05:20;;;;;;;6.00;2.65;;;;;;;;;;5040627;28;20057;-62
2023/07/25 06:07:46;;;;;;;6.20;2.08;;;;;;;;;;5041164;28;20144;-63
2023/07/25 06:10:13;;;;;;;4.97;1.77;;;;;;;;;;5036429;28;20597;-63
2023/07/25 06:12:39;;;;;;;4.82;1.63;;;;;;;;;;5038181;28;20460;-64
2023/07/25 06:15:05;;;;;;;3.03;1.75;;;;;;;;;;5035187;28;20523;-61
2023/07/25 06:17:32;;;;;;;7.20;2.00;;;;;;;;;;5042843;28;20053;-63
2023/07/25 06:19:58;;;;;;;4.43;1.60;;;;;;;;;;5044549;28;20146;-59
2023/07/25 06:22:25;;;;;;;8.25;1.73;;;;;;;;;;5045890;28;20068;-63
2023/07/25 06:24:51;;;;;;;12.35;2.10;;;;;;;;;;5043944;28;20053;-64
2023/07/25 06:27:18;;;;;;;4.32;1.40;;;;;;;;;;5045094;28;20057;-61
2023/07/25 06:29:44;;;;;;;3.95;1.60;;;;;;;;;;5045319;28;20152;-64
2023/07/25 06:32:10;;;;;;;6.22;1.40;;;;;;;;;;5041514;28;20063;-63
2023/07/25 06:34:37;;;;;;;7.00;1.77;;;;;;;;;;5039361;28;20049;-62
2023/07/25 06:37:03;;;;;;;7.13;1.55;;;;;;;;;;5043398;28;20143;-59
2023/07/25 06:39:30;;;;;;;8.63;1.45;;;;;;;;;;5042577;28;20058;-63
2023/07/25 06:41:56;;;;;;;3.55;1.20;;;;;;;;;;5044190;28;20053;-61
2023/07/25 06:44:23;;;;;;;3.17;1.08;;;;;;;;;;5046862;28;20135;-62
2023/07/25 06:46:50;;;;;;;2.58;0.98;;;;;;;;;;5043882;28;20177;-64
2023/07/25 06:49:16;;;;;;;1.73;1.17;;;;;;;;;;5043164;28;20049;-63
2023/07/25 06:51:43;;;;;;;3.40;1.30;;;;;;;;;;5044198;28;20053;-62
2023/07/25 06:54:12;;;;;;;5.60;1.20;;;;;;;;;;5041891;28;20053;-65
2023/07/25 06:56:38;;;;;;;5.18;1.00;;;;;;;;;;5044661;28;20060;-63
2023/07/25 06:59:05;;;;;;;6.55;1.10;;;;;;;;;;5043972;28;20065;-64
2023/07/25 07:01:31;;;;;;;2.67;0.73;;;;;;;;;;5044199;28;20149;-62
2023/07/25 07:03:59;;;;;;;3.90;0.80;;;;;;;;;;5044100;28;20148;-63
2023/07/25 07:06:26;;;;;;;2.30;1.10;;;;;;;;;;5037039;28;20050;-62
2023/07/25 07:08:52;;;;;;;2.40;0.60;;;;;;;;;;5043872;28;20049;-65
2023/07/25 07:11:19;;;;;;;4.47;0.80;;;;;;;;;;5044532;28;20060;-64
2023/07/25 07:13:45;;;;;;;5.00;1.15;;;;;;;;;;5042470;28;20081;-61
2023/07/25 07:16:12;;;;;;;2.70;0.77;;;;;;;;;;5035604;28;20061;-64
2023/07/25 07:18:38;;;;;;;4.85;0.98;;;;;;;;;;5041560;28;20061;-61
2023/07/25 07:21:05;;;;;;;1.65;0.70;;;;;;;;;;5043184;28;20061;-64
2023/07/25 07:23:31;;;;;;;2.25;0.88;;;;;;;;;;5042574;28;20468;-63
2023/07/25 07:25:58;;;;;;;3.88;1.05;;;;;;;;;;5042668;28;20144;-60
2023/07/25 07:28:25;;;;;;;6.43;1.40;;;;;;;;;;5041632;28;20113;-60
2023/07/25 07:30:51;;;;;;;1.42;0.70;;;;;;;;;;5043318;28;20100;-62
2023/07/25 07:33:18;;;;;;;4.35;1.95;;;;;;;;;;5043706;28;20060;-64
2023/07/25 07:35:45;;;;;;;1.15;0.50;;;;;;;;;;5040509;28;20467;-65
2023/07/25 07:38:11;;;;;;;2.90;0.60;;;;;;;;;;5042228;28;20500;-62
2023/07/25 07:40:38;;;;;;;2.30;0.60;;;;;;;;;;5044187;28;20111;-62
2023/07/25 07:43:05;;;;;;;5.90;0.80;;;;;;;;;;5040349;28;20333;-64
2023/07/25 07:45:31;;;;;;;3.35;0.60;;;;;;;;;;5043404;28;20122;-63
2023/07/25 07:47:58;;;;;;;1.02;0.55;;;;;;;;;;5043951;28;20055;-61
2023/07/25 07:50:28;;;;;;;2.35;0.43;;;;;;;;;;5041945;28;20211;-63
2023/07/25 07:52:54;;;;;;;2.63;0.80;;;;;;;;;;5042357;28;20297;-64
2023/07/25 07:55:21;;;;;;;3.40;0.63;;;;;;;;;;5042659;28;20053;-61
2023/07/25 07:57:47;;;;;;;1.17;0.60;;;;;;;;;;5043167;28;20057;-60
2023/07/25 08:00:15;;;;;;;3.92;0.60;;;;;;;;;;5043339;28;20053;-60
2023/07/25 08:02:42;;;;;;;5.32;1.15;;;;;;;;;;5042936;28;20127;-63
2023/07/25 08:05:09;;;;;;;6.45;0.73;;;;;;;;;;5042506;28;20050;-62
2023/07/25 08:07:35;;;;;;;3.95;0.60;;;;;;;;;;5042242;28;20060;-61
2023/07/25 08:10:02;;;;;;;1.95;0.88;;;;;;;;;;5042900;28;20542;-64
2023/07/25 08:12:29;;;;;;;6.05;1.90;;;;;;;;;;5042867;28;20077;-64
2023/07/25 08:14:56;;;;;;;2.03;0.40;;;;;;;;;;5042492;28;20138;-62
2023/07/25 08:17:22;;;;;;;1.67;0.60;;;;;;;;;;5043444;28;20149;-62
2023/07/25 08:19:49;;;;;;;3.60;0.60;;;;;;;;;;5042213;28;20227;-64
2023/07/25 08:22:15;;;;;;;2.50;0.70;;;;;;;;;;5043231;28;20065;-63
2023/07/25 08:24:42;;;;;;;2.55;0.75;;;;;;;;;;5041626;28;20148;-62
2023/07/25 08:27:08;;;;;;;0.38;0.38;;;;;;;;;;5038718;28;20065;-63
2023/07/25 08:29:45;;;;;;;1.55;0.80;;;;;;;;;;5045219;28;20053;-63
2023/07/25 08:32:12;;;;;;;3.28;0.60;;;;;;;;;;5043087;28;20053;-63
2023/07/25 08:34:38;;;;;;;1.55;0.75;;;;;;;;;;5041882;28;20050;-61
2023/07/25 08:37:05;;;;;;;11.68;0.85;;;;;;;;;;5042277;28;20053;-62
2023/07/25 08:39:32;;;;;;;2.88;1.00;;;;;;;;;;5042883;28;20265;-63
2023/07/25 08:41:59;;;;;;;0.82;0.63;;;;;;;;;;5041052;28;20050;-62
2023/07/25 08:44:26;;;;;;;1.35;0.50;;;;;;;;;;5042598;28;20057;-64
2023/07/25 08:46:54;;;;;;;1.80;0.40;;;;;;;;;;5031187;28;20053;-65
2023/07/25 08:49:25;;;;;;;1.60;0.30;;;;;;;;;;5028355;28;20590;-63
2023/07/25 08:51:53;;;;;;;0.90;0.88;;;;;;;;;;5042129;28;20053;-64
2023/07/25 08:54:26;;;;;;;3.22;0.63;;;;;;;;;;5038353;28;20058;-64
2023/07/25 08:56:52;;;;;;;1.30;0.40;;;;;;;;;;5040580;28;20057;-65
2023/07/25 08:59:19;;;;;;;1.33;0.50;;;;;;;;;;5032033;28;20496;-65
2023/07/25 09:01:46;;;;;;;1.65;0.30;;;;;;;;;;5041305;28;20562;-60
2023/07/25 09:04:13;;;;;;;2.10;0.70;;;;;;;;;;5041720;28;20058;-63
2023/07/25 09:06:40;;;;;;;1.85;0.50;;;;;;;;;;5042782;28;20117;-60
2023/07/25 09:09:07;;;;;;;1.52;0.50;;;;;;;;;;5042169;28;20140;-64
2023/07/25 09:11:33;;;;;;;1.85;0.52;;;;;;;;;;5042315;28;20089;-61
2023/07/25 09:14:01;;;;;;;5.07;0.80;;;;;;;;;;5042190;28;20503;-65
2023/07/25 09:16:27;;;;;;;1.02;0.40;;;;;;;;;;5030117;28;20057;-63
2023/07/25 09:18:54;;;;;;;4.00;0.80;;;;;;;;;;5038361;28;20056;-61
2023/07/25 09:21:20;;;;;;;0.65;0.40;;;;;;;;;;5040644;28;20937;-62
2023/07/25 09:23:57;;;;;;;1.13;0.52;;;;;;;;;;5044288;28;20047;-63
2023/07/25 09:26:27;;;;;;;0.40;0.40;;;;;;;;;;5038355;28;20049;-65
2023/07/25 09:28:55;;;;;;;2.30;0.60;;;;;;;;;;5043054;28;20328;-64
2023/07/25 09:31:26;;;;;;;1.30;0.60;;;;;;;;;;5043399;28;20053;-61
2023/07/25 09:33:54;;;;;;;1.08;0.55;;;;;;;;;;5042449;28;20140;-65
2023/07/25 09:36:21;;;;;;;4.68;0.90;;;;;;;;;;5035709;28;20045;-64
2023/07/25 09:38:53;;;;;;;1.38;0.50;;;;;;;;;;5041962;28;20049;-62
2023/07/25 09:41:23;;;;;;;0.60;0.50;;;;;;;;;;5041730;28;20049;-65
2023/07/25 09:43:50;;;;;;;0.88;0.40;;;;;;;;;;5039868;28;20054;-65
2023/07/25 09:46:17;;;;;;;2.20;0.60;;;;;;;;;;5052022;28;20146;-64
2023/07/25 09:48:44;;;;;;;3.50;0.40;;;;;;;;;;5040979;28;20054;-64
2023/07/25 09:51:11;;;;;;;5.03;0.57;;;;;;;;;;5040986;28;20054;-65
2023/07/25 09:53:41;;;;;;;3.42;0.40;;;;;;;;;;5045917;28;20516;-61
2023/07/25 09:56:08;;;;;;;1.73;0.45;;;;;;;;;;5044934;28;20815;-61
2023/07/25 09:58:35;;;;;;;1.02;0.43;;;;;;;;;;5042936;28;20127;-65
2023/07/25 10:01:09;;;;;;;2.25;0.52;;;;;;;;;;5042270;28;20054;-63
2023/07/25 10:03:35;;;;;;;0.63;0.50;;;;;;;;;;5047775;28;20059;-65
2023/07/25 10:06:04;;;;;;;2.45;0.50;;;;;;;;;;5035386;28;20527;-63
2023/07/25 10:08:31;;;;;;;0.98;0.40;;;;;;;;;;5054048;28;20507;-64
2023/07/25 10:10:58;;;;;;;4.93;1.02;;;;;;;;;;5045319;28;20053;-65
2023/07/25 10:13:24;;;;;;;2.28;0.57;;;;;;;;;;5046808;28;20057;-61
2023/07/25 10:15:51;;;;;;;7.55;0.90;;;;;;;;;;5044784;28;20050;-57
2023/07/25 10:18:17;;;;;;;0.50;0.50;;;;;;;;;;5042915;28;20469;-63
2023/07/25 10:20:44;;;;;;;3.03;0.65;;;;;;;;;;5042565;28;20088;-64
2023/07/25 10:23:11;;;;;;;1.52;0.52;;;;;;;;;;5045508;28;20083;-63
2023/07/25 10:25:37;;;;;;;1.85;0.30;;;;;;;;;;5065575;28;20057;-63
2023/07/25 10:28:04;;;;;;;1.08;0.47;;;;;;;;;;5055205;28;20076;-62
2023/07/25 10:30:31;;;;;;;0.57;0.30;;;;;;;;;;5025563;28;20054;-64
2023/07/25 10:33:06;;;;;;;1.25;0.60;;;;;;;;;;5025054;28;20235;-60
2023/07/25 10:35:45;;;;;;;3.92;0.65;;;;;;;;;;5037338;28;20504;-63
2023/07/25 10:38:14;;;;;;;1.75;0.60;;;;;;;;;;5042753;28;20057;-61
2023/07/25 10:40:50;;;;;;;2.53;0.70;;;;;;;;;;5044698;28;20509;-61
2023/07/25 10:43:17;;;;;;;2.08;0.45;;;;;;;;;;5044088;28;20061;-62
2023/07/25 10:45:49;;;;;;;3.53;0.55;;;;;;;;;;5028227;28;20141;-66
2023/07/25 10:48:28;;;;;;;1.30;0.80;;;;;;;;;;5042755;28;20452;-63
2023/07/25 10:50:54;;;;;;;0.65;0.45;;;;;;;;;;5042306;28;20064;-65
2023/07/25 10:53:22;;;;;;;1.50;0.50;;;;;;;;;;5043988;28;20053;-67
2023/07/25 10:56:04;;;;;;;2.85;0.63;;;;;;;;;;5032148;28;20583;-63
2023/07/25 10:58:35;;;;;;;2.33;0.70;;;;;;;;;;5043245;28;20136;-64
2023/07/25 11:01:01;;;;;;;0.47;0.30;;;;;;;;;;5042620;28;20116;-66
2023/07/25 11:03:29;;;;;;;2.45;0.52;;;;;;;;;;5043443;28;20077;-67
2023/07/25 11:06:07;;;;;;;0.80;0.50;;;;;;;;;;5044461;28;20063;-66
2023/07/25 11:08:37;;;;;;;1.48;0.80;;;;;;;;;;5043625;28;20529;-65
2023/07/25 11:11:05;;;;;;;1.85;0.75;;;;;;;;;;5043659;28;20057;-65
2023/07/25 11:13:38;;;;;;;0.93;0.50;;;;;;;;;;5038474;28;20228;-64
2023/07/25 11:16:05;;;;;;;4.22;1.38;;;;;;;;;;5038511;28;20140;-66
2023/07/25 11:18:37;;;;;;;1.92;0.73;;;;;;;;;;5043889;28;20111;-64
2023/07/25 11:21:05;;;;;;;1.13;0.60;;;;;;;;;;5044305;28;20100;-65
2023/07/25 11:23:32;;;;;;;0.98;0.68;;;;;;;;;;5044773;28;20053;-61
2023/07/25 11:25:59;;;;;;;3.50;0.90;;;;;;;;;;5043352;28;20057;-63
2023/07/25 11:28:28;;;;;;;1.83;0.60;;;;;;;;;;5038602;28;20293;-62
2023/07/25 11:30:55;;;;;;;2.00;0.75;;;;;;;;;;5034731;28;20185;-65
2023/07/25 11:33:22;;;;;;;0.77;0.70;;;;;;;;;;5042984;28;20049;-65
2023/07/25 11:35:52;;;;;;;2.35;0.60;;;;;;;;;;5043564;28;20050;-64
2023/07/25 11:38:19;;;;;;;1.13;0.50;;;;;;;;;;5043581;28;20053;-63
2023/07/25 11:40:53;;;;;;;1.30;0.50;;;;;;;;;;5042385;28;20072;-66
2023/07/25 11:43:19;;;;;;;1.77;0.70;;;;;;;;;;5042839;28;20069;-66
2023/07/25 11:45:46;;;;;;;1.25;0.68;;;;;;;;;;5043624;28;20055;-65
2023/07/25 11:48:18;;;;;;;3.88;1.08;;;;;;;;;;5044780;28;20068;-65
2023/07/25 11:50:48;;;;;;;3.15;0.80;;;;;;;;;;5037053;28;20080;-65
2023/07/25 11:53:15;;;;;;;3.05;0.82;;;;;;;;;;5042837;28;20056;-65
2023/07/25 11:55:44;;;;;;;1.65;0.60;;;;;;;;;;5042616;28;20050;-62
2023/07/25 11:58:18;;;;;;;2.40;0.73;;;;;;;;;;5041538;28;20512;-67
2023/07/25 12:00:51;;;;;;;3.03;0.75;;;;;;;;;;5043640;28;20057;-66
2023/07/25 12:03:18;;;;;;;2.63;0.68;;;;;;;;;;5042965;28;20064;-65
2023/07/25 12:05:51;;;;;;;2.03;0.95;;;;;;;;;;5037324;28;20061;-67
2023/07/25 12:08:39;;;;;;;3.28;1.02;;;;;;;;;;5044796;28;20445;-66
2023/07/25 12:11:10;;;;;;;0.80;0.50;;;;;;;;;;5057040;28;20055;-64
2023/07/25 12:13:45;;;;;;;9.48;0.85;;;;;;;;;;5040984;28;20085;-61
2023/07/25 12:16:11;;;;;;;;;;;;;;;;;;5041962;28;20057;-64
2023/07/25 12:18:38;;;;;;;1.08;0.80;;;;;;;;;;5041980;28;45111;-63
2023/07/25 12:21:04;;;;;;;1.77;0.65;;;;;;;;;;5042014;28;20153;-67
2023/07/25 12:23:38;;;;;;;3.25;0.73;;;;;;;;;;5047572;28;20053;-66
2023/07/25 12:26:05;;;;;;;1.75;0.73;;;;;;;;;;5041949;28;20127;-65
2023/07/25 12:28:57;;;;;;;1.75;0.57;;;;;;;;;;5041326;28;20123;-67
2023/07/25 12:31:24;;;;;;;0.88;0.40;;;;;;;;;;5031568;28;20136;-63
2023/07/25 12:33:50;;;;;;;0.30;0.30;;;;;;;;;;5042322;28;20132;-63
2023/07/25 12:36:18;;;;;;;0.50;0.50;;;;;;;;;;5044456;28;20105;-60
2023/07/25 12:38:44;;;;;;;2.60;0.40;;;;;;;;;;5042370;28;20140;-60
2023/07/25 12:41:13;;;;;;;2.58;0.50;;;;;;;;;;5043138;28;20383;-63
2023/07/25 12:43:40;;;;;;;1.73;0.40;;;;;;;;;;5035622;28;20053;-59
2023/07/25 12:46:07;;;;;;;0.82;0.65;;;;;;;;;;5029984;28;20077;-61
2023/07/25 12:48:34;;;;;;;0.88;0.40;;;;;;;;;;5041763;28;20108;-60
2023/07/25 12:51:00;;;;;;;2.50;0.40;;;;;;;;;;5042976;28;20103;-68
2023/07/25 12:53:27;;;;;;;0.75;0.43;;;;;;;;;;5043413;28;20053;-65
2023/07/25 12:55:53;;;;;;;2.90;0.40;;;;;;;;;;5040743;28;20061;-63
2023/07/25 12:58:20;;;;;;;1.13;0.55;;;;;;;;;;5041840;28;20088;-62
2023/07/25 13:00:46;;;;;;;1.77;0.47;;;;;;;;;;5053923;28;20053;-61
2023/07/25 13:03:13;;;;;;;0.73;0.30;;;;;;;;;;5027097;28;20562;-66
2023/07/25 13:05:40;;;;;;;2.47;0.50;;;;;;;;;;5038417;28;20057;-62
2023/07/25 13:08:06;;;;;;;1.77;0.47;;;;;;;;;;5040968;28;20468;-66
2023/07/25 13:10:33;;;;;;;0.85;0.40;;;;;;;;;;5040409;28;20174;-61
2023/07/25 13:12:59;;;;;;;2.08;0.60;;;;;;;;;;5041873;28;20064;-65
2023/07/25 13:15:26;;;;;;;0.60;0.50;;;;;;;;;;5042323;28;20064;-63
2023/07/25 13:17:53;;;;;;;0.95;0.40;;;;;;;;;;5045048;28;20092;-67
2023/07/25 13:20:20;;;;;;;9.55;0.60;;;;;;;;;;5041162;28;20116;-63
2023/07/25 13:22:46;;;;;;;1.70;0.50;;;;;;;;;;5042323;28;20053;-67
2023/07/25 13:25:13;;;;;;;0.63;0.50;;;;;;;;;;5041269;28;20514;-64
2023/07/25 13:27:39;;;;;;;1.85;0.40;;;;;;;;;;5042775;28;20088;-67
2023/07/25 13:30:06;;;;;;;1.35;0.57;;;;;;;;;;5041723;28;20508;-64
2023/07/25 13:32:33;;;;;;;2.35;0.80;;;;;;;;;;5042113;28;20152;-64
2023/07/25 13:35:00;;;;;;;0.30;0.30;;;;;;;;;;5041509;28;20515;-64
2023/07/25 13:37:26;;;;;;;2.47;0.75;;;;;;;;;;5041998;28;20320;-68
2023/07/25 13:39:53;;;;;;;0.65;0.38;;;;;;;;;;5042040;28;20151;-67
2023/07/25 13:42:22;;;;;;;2.33;0.80;;;;;;;;;;5041585;28;20826;-68
2023/07/25 13:44:49;;;;;;;1.58;0.50;;;;;;;;;;5041319;28;20077;-64
2023/07/25 13:47:16;;;;;;;0.40;0.40;;;;;;;;;;5041882;28;20061;-66
2023/07/25 13:49:42;;;;;;;3.58;0.57;;;;;;;;;;5041265;28;20534;-65
2023/07/25 13:52:09;;;;;;;2.17;0.50;;;;;;;;;;5041779;28;20053;-67
2023/07/25 13:54:36;;;;;;;0.75;0.40;;;;;;;;;;5041058;28;20158;-65
2023/07/25 13:57:03;;;;;;;0.40;0.30;;;;;;;;;;5040525;28;20932;-64
2023/07/25 13:59:29;;;;;;;4.15;0.43;;;;;;;;;;5041324;28;20057;-68
2023/07/25 14:01:58;;;;;;;0.75;0.40;;;;;;;;;;5040235;28;20507;-69
2023/07/25 14:04:24;;;;;;;1.50;0.70;;;;;;;;;;5040210;28;20061;-68
2023/07/25 14:06:51;;;;;;;2.00;0.50;;;;;;;;;;5041792;28;20243;-59
2023/07/25 14:09:19;;;;;;;0.40;0.40;;;;;;;;;;5039333;28;20059;-61
2023/07/25 14:11:46;;;;;;;2.38;0.90;;;;;;;;;;5041436;28;20104;-59
2023/07/25 14:14:12;;;;;;;0.88;0.60;;;;;;;;;;5041044;28;20538;-61
2023/07/25 14:16:39;;;;;;;2.38;0.50;;;;;;;;;;5042856;28;20092;-61
2023/07/25 14:19:05;;;;;;;2.65;0.50;;;;;;;;;;5040700;28;20076;-61
2023/07/25 14:21:32;;;;;;;1.58;0.40;;;;;;;;;;5031669;28;20496;-63
2023/07/25 14:24:04;;;;;;;0.70;0.43;;;;;;;;;;5018311;28;20136;-54
2023/07/25 14:26:32;;;;;;;1.88;0.70;;;;;;;;;;5035886;28;20049;-61
2023/07/25 14:29:03;;;;;;;2.75;0.40;;;;;;;;;;5039614;28;20057;-56
2023/07/25 14:31:30;;;;;;;0.43;0.40;;;;;;;;;;5040883;28;21136;-61
2023/07/25 14:33:59;;;;;;;2.05;0.63;;;;;;;;;;5040205;28;20053;-58
2023/07/25 14:36:26;;;;;;;0.43;0.40;;;;;;;;;;5056445;28;20303;-60
2023/07/25 14:38:52;;;;;;;0.57;0.40;;;;;;;;;;5036336;28;20053;-61
2023/07/25 14:41:19;;;;;;;4.80;0.70;;;;;;;;;;5043346;28;20090;-61
2023/07/25 14:43:45;;;;;;;0.68;0.50;;;;;;;;;;5040333;28;20045;-58